Tiempo atmosférico en la estación meteorológica de Morales del Toro, Zamora (710 m.)



Fecha
DESCASC
Temp. máxima en grados centígrados (hora)
DESCASC
Temp. mínima en grados centígrados (hora)
DESCASC
Temp. media en grados centígrados
DESCASC
Racha de viento máxima en m/sg (hora)
DESCASC
Velocidad máxima media en intervalos de 10 minutos(hora)
DESCASC
Precipitaciones diarias en mm
DESCASC
Precipitaciones de 00:00 a 06:00 en mm
DESCASC
Precipitaciones de 06:00 a 12:00 en mm
DESCASC
Precipitaciones de 12:00 a 18:00 en mm
DESCASC
Precipitaciones de 18:00 a 24:00 en mm
DESCASC
27-04-2019 21.2 (19:20) 1.7 (00:00) 11.5 6.39 (14:30) 2.78 (07:30) 0 0 0 0 0
15-05-2019 31.8 (18:00) 7.4 (00:00) 19.6 7.5 (16:50) 3.89 (16:50) 0 0 0 0 0
28-04-2019 23.6 (18:50) 5.6 (00:00) 14.6 6.11 (02:00) 4.44 (02:20) 0 0 0 0 0
30-04-2019 26.2 (17:50) 7.9 (00:00) 17.1 7.78 (00:40) 4.44 (00:40) 0 0 0 0 0
19-05-2019 19.8 (17:40) 2.4 (00:00) 11.1 9.72 (15:30) 4.72 (02:10) 0 0 0 0 0
29-04-2019 25.9 (18:50) 6.8 (00:00) 16.3 6.39 (17:40) 5 (05:50) 0 0 0 0 0
22-05-2019 27.6 (17:30) 6.3 (07:00) 17 8.89 (16:10) 5.83 (01:00) 0 0 0 0 0
20-05-2019 21.4 (18:20) 4.7 (06:30) 13 10.28 (17:00) 6.11 (20:20) 0 0 0 0 0
21-05-2019 25.5 (17:10) 5 (06:50) 15.3 8.61 (22:20) 6.39 (22:20) 0 0 0 0 0
14-05-2019 30.2 (19:10) 4.3 (00:00) 17.3 8.89 (02:30) 6.39 (02:30) 0 0 0 0 0
12-05-2019 25.8 (18:20) 6.1 (00:00) 15.9 9.72 (11:00) 6.67 (11:30) 0 0 0 0 0
18-05-2019 16.8 (15:20) 1.2 (00:00) 9 11.67 (18:00) 7.22 (18:00) 0 0 0 0 0
11-05-2019 24.4 (18:30) 5.8 (00:00) 15.1 11.39 (22:50) 7.22 (19:50) 0 0 0 0 0
23-05-2019 26.8 (15:20) 11 (06:50) 18.9 11.67 (20:10) 7.78 (20:10) 0 0 0 0 0
02-05-2019 21.6 (17:10) 4.7 (06:00) 13.2 11.67 (00:20) 8.33 (00:20) 0 0 0 0 0
06-05-2019 25.4 (13:10) 2.6 (00:00) 14 11.39 (19:50) 8.61 (19:20) 0 0 0 0 0
05-05-2019 22.2 (19:20) 3.8 (00:00) 13 11.94 (01:20) 8.61 (00:30) 0 0 0 0 0
13-05-2019 27.1 (17:20) 4.5 (00:00) 15.8 11.94 (20:30) 8.89 (20:30) 0 0 0 0 0
17-05-2019 17.9 (18:00) 6.5 (00:00) 12.2 13.89 (16:50) 8.89 (09:20) 0 0 0 0 0
03-05-2019 18.7 (17:30) 2.8 (00:00) 10.8 11.67 (00:40) 8.89 (00:10) 0 0 0 0 0
04-05-2019 23.8 (20:20) 1.9 (00:00) 12.8 12.5 (22:50) 9.17 (23:40) 0 0 0 0 0
26-04-2019 15.5 (18:30) 5.1 (00:00) 10.3 12.22 (03:40) 9.17 (03:40) 0 0 0 0 0
07-05-2019 20.2 (15:00) 8.2 (00:00) 14.2 13.61 (21:30) 10.28 (22:10) 4.2 0 0 0.4 3.8
10-05-2019 23.5 (17:10) 11.3 (00:00) 17.4 15.28 (13:00) 10.83 (13:50) 0.8 0 0.8 0 0
16-05-2019 26 (14:00) 9.3 (00:00) 17.7 15.56 (18:20) 11.39 (18:20) 1.2 0 0 0 1.2
01-05-2019 25.7 (17:20) 6.5 (00:00) 16.1 14.72 (23:40) 11.39 (23:40) 0 0 0 0 0
09-05-2019 18.7 (14:20) 4.9 (00:00) 11.8 17.5 (20:50) 13.06 (17:50) 0 0 0 0 0
08-05-2019 18.1 (15:40) 9.5 (00:00) 13.8 22.78 (14:40) 16.11 (14:40) 1.2 0 1.2 0 0

Gráficas

Temp. máximas Temp. mínimas Temp. medias Precipitaciones Rachas de viento máximas Velocidades máximas media en intervalos de 10 minutos

Datos horarios

Fecha y hora oficial Temperatura (ºC) Velocidad del viento (km/h) Dirección del viento Racha (km/h) Dirección de racha Precipitación (mm) Presión (hPa) Tendencia (hPa) Humedad (%)
2019-05-25 23:00:00 13.6 20 Nordeste 32 Este 0 -- -- 61
2019-05-25 22:00:00 15.6 23 Este 38 Este 0 -- -- 54
2019-05-25 21:00:00 20.1 17 Este 28 Nordeste 0 -- -- 41
2019-05-25 20:00:00 22 18 Nordeste 26 Nordeste 0 -- -- 35
2019-05-25 19:00:00 22.4 16 Nordeste 32 Nordeste 0 -- -- 34
2019-05-25 18:00:00 22.5 19 Nordeste 31 Nordeste 0 -- -- 30
2019-05-25 17:00:00 22.7 17 Nordeste 30 Norte 0 -- -- 31
2019-05-25 16:00:00 22.3 11 Nordeste 31 Este 0 -- -- 34
2019-05-25 15:00:00 20.4 23 Nordeste 36 Nordeste 0 -- -- 38
2019-05-25 14:00:00 19.6 14 Este 36 Este 0 -- -- 40
2019-05-25 13:00:00 18 15 Nordeste 30 Nordeste 0 -- -- 42
2019-05-25 12:00:00 16.8 17 Nordeste 28 Nordeste 0 -- -- 47
2019-05-25 11:00:00 14.2 19 Nordeste 35 Nordeste 0 -- -- 56
2019-05-25 10:00:00 13.5 26 Nordeste 35 Nordeste 0 -- -- 61
2019-05-25 09:00:00 12.4 12 Nordeste 18 Nordeste 0 -- -- 69
2019-05-25 08:00:00 10 0 Calma 6 Sudeste 0 -- -- 74
2019-05-25 07:00:00 5.4 4 Noroeste 9 Noroeste 0 -- -- 89
2019-05-25 06:00:00 6.4 3 Nordeste 13 Este 0 -- -- 88
2019-05-25 05:00:00 6.6 10 Nordeste 19 Nordeste 0 -- -- 85
2019-05-25 04:00:00 6.6 5 Este 8 Nordeste 0 -- -- 86
2019-05-25 03:00:00 7.5 7 Nordeste 14 Nordeste 0 -- -- 84
2019-05-25 02:00:00 8.5 8 Este 16 Este 0 -- -- 81
2019-05-25 01:00:00 9.8 12 Este 30 Este 0 -- -- 74
2019-05-25 00:00:00 11.1 21 Nordeste 30 Nordeste 0 -- -- 70
2019-05-24 23:00:00 12.2 22 Nordeste 35 Nordeste 0 -- -- 65
2019-05-24 22:00:00 13.8 23 Nordeste 44 Nordeste 0 -- -- 52
2019-05-24 21:00:00 16.2 30 Nordeste 43 Nordeste 0 -- -- 48
2019-05-24 20:00:00 19.9 28 Nordeste 44 Este 0 -- -- 39
2019-05-24 19:00:00 22.6 17 Nordeste 32 Nordeste 0 -- -- 32
2019-05-24 18:00:00 22.8 19 Nordeste 33 Nordeste 0 -- -- 31
2019-05-24 17:00:00 22.2 19 Nordeste 35 Nordeste 0 -- -- 31
2019-05-24 16:00:00 21.7 20 Norte 41 Nordeste 0 -- -- 32
2019-05-24 15:00:00 21 15 Nordeste 36 Nordeste 0 -- -- 35
2019-05-24 14:00:00 19.6 17 Nordeste 31 Nordeste 0 -- -- 39
2019-05-24 13:00:00 18.3 19 Nordeste 37 Nordeste 0 -- -- 43
2019-05-24 12:00:00 17.5 21 Nordeste 38 Nordeste 0 -- -- 43
2019-05-24 11:00:00 15.9 26 Nordeste 43 Nordeste 0 -- -- 49
2019-05-24 10:00:00 14.4 28 Nordeste 39 Nordeste 0 -- -- 54
2019-05-24 09:00:00 13.1 20 Norte 32 Nordeste 0 -- -- 63
2019-05-24 08:00:00 11.8 14 Norte 25 Norte 0 -- -- 72
2019-05-24 07:00:00 8.4 12 Nordeste 18 Nordeste 0 -- -- 86
2019-05-24 06:00:00 8.8 9 Nordeste 13 Nordeste 0 -- -- 86
2019-05-24 05:00:00 10.4 7 Nordeste 20 Nordeste 0 -- -- 80
2019-05-24 04:00:00 12.2 8 Norte 15 Norte 0 -- -- 75
2019-05-24 03:00:00 11.8 6 Nordeste 22 Nordeste 0 -- -- 77
2019-05-24 02:00:00 12.6 13 Nordeste 28 Nordeste 0 -- -- 75
2019-05-24 01:00:00 12.7 19 Nordeste 32 Nordeste 0 -- -- 76
2019-05-24 00:00:00 14.2 24 Nordeste 36 Nordeste 0 -- -- 71
2019-05-23 23:00:00 17.6 18 Noroeste 33 Noroeste 0 -- -- 47
2019-05-23 22:00:00 19.3 16 Oeste 39 Oeste 0 -- -- 47
2019-05-23 21:00:00 21.8 26 Oeste 42 Oeste 0 -- -- 40
2019-05-23 20:00:00 24.4 27 Oeste 39 Oeste 0 -- -- 31
2019-05-23 19:00:00 26.3 23 Oeste 41 Oeste 0 -- -- 27
2019-05-23 18:00:00 26.1 21 Oeste 38 Oeste 0 -- -- 27
2019-05-23 17:00:00 26 24 Oeste 39 Sudoeste 0 -- -- 31
2019-05-23 16:00:00 25.7 17 Oeste 35 Oeste 0 -- -- 32
2019-05-23 15:00:00 25.5 13 Oeste 28 Sudoeste 0 -- -- 34
2019-05-23 14:00:00 24.9 11 Sudoeste 24 Sudoeste 0 -- -- 39
2019-05-23 13:00:00 23.4 11 Sudoeste 23 Sudoeste 0 -- -- 43
2019-05-23 12:00:00 21 12 Oeste 26 Oeste 0 -- -- 53
2019-05-23 11:00:00 18.9 14 Oeste 22 Oeste 0 -- -- 60
2019-05-23 10:00:00 16.5 11 Oeste 15 Oeste 0 -- -- 68
2019-05-23 09:00:00 13.9 6 Oeste 8 Oeste 0 -- -- 72
2019-05-23 08:00:00 12.4 4 Oeste 6 Oeste 0 -- -- 73
2019-05-23 07:00:00 11.1 4 Oeste 9 Oeste 0 -- -- 76
2019-05-23 06:00:00 12 9 Oeste 13 Oeste 0 -- -- 71
2019-05-23 05:00:00 12.1 13 Oeste 17 Oeste 0 -- -- 69
2019-05-23 04:00:00 11.9 10 Oeste 14 Oeste 0 -- -- 64
2019-05-23 03:00:00 13 8 Oeste 13 Oeste 0 -- -- 58
2019-05-23 02:00:00 14 7 Oeste 8 Oeste 0 -- -- 56
2019-05-23 01:00:00 15.7 0 Calma 7 Norte 0 -- -- 49
2019-05-23 00:00:00 16.8 6 Norte 12 Noroeste 0 -- -- 46
2019-05-22 23:00:00 16.9 10 Noroeste 14 Noroeste 0 -- -- 45
2019-05-22 22:00:00 19.7 11 Noroeste 15 Oeste 0 -- -- 37
2019-05-22 21:00:00 24.6 12 Oeste 24 Oeste 0 -- -- 28
2019-05-22 20:00:00 26.6 14 Oeste 24 Oeste 0 -- -- 25
2019-05-22 19:00:00 27.1 13 Oeste 29 Oeste 0 -- -- 25
2019-05-22 18:00:00 26.2 17 Oeste 28 Oeste 0 -- -- 26
2019-05-22 17:00:00 26.5 9 Noroeste 32 Oeste 0 -- -- 25
2019-05-22 16:00:00 26.2 8 Sudoeste 27 Oeste 0 -- -- 26
2019-05-22 15:00:00 25.7 6 Sur 28 Sudoeste 0 -- -- 26
2019-05-22 14:00:00 25.6 5 Sur 18 Sudoeste 0 -- -- 28
2019-05-22 13:00:00 22.7 6 Sur 12 Sur 0 -- -- 34
2019-05-22 12:00:00 20.5 5 Nordeste 10 Nordeste 0 -- -- 41
2019-05-22 11:00:00 17.8 4 Sur 12 Sur 0 -- -- 49
2019-05-22 10:00:00 15.8 5 Sudeste 17 Este 0 -- -- 54
2019-05-22 09:00:00 12.2 11 Nordeste 20 Nordeste 0 -- -- 68
2019-05-22 08:00:00 7.9 15 Nordeste 19 Nordeste 0 -- -- 80
2019-05-22 07:00:00 6.3 14 Norte 19 Norte 0 -- -- 86
2019-05-22 06:00:00 7.5 12 Nordeste 14 Nordeste 0 -- -- 82
2019-05-22 05:00:00 8.4 9 Norte 12 Norte 0 -- -- 77
2019-05-22 04:00:00 9.7 9 Norte 16 Noroeste 0 -- -- 71
2019-05-22 03:00:00 10.1 8 Nordeste 11 Norte 0 -- -- 71
2019-05-22 02:00:00 11.6 9 Nordeste 27 Nordeste 0 -- -- 63
2019-05-22 01:00:00 14.1 21 Nordeste 31 Este 0 -- -- 51
2019-05-22 00:00:00 13.4 13 Nordeste 24 Este 0 -- -- 53
2019-05-21 23:00:00 15.4 13 Nordeste 31 Este 0 -- -- 46
2019-05-21 22:00:00 18.7 21 Nordeste 26 Nordeste 0 -- -- 36
2019-05-21 21:00:00 21.7 11 Nordeste 16 Nordeste 0 -- -- 34
2019-05-21 20:00:00 23.8 9 Nordeste 22 Este 0 -- -- 27
2019-05-21 19:00:00 25.5 9 Este 18 Noroeste 0 -- -- 25
2019-05-21 18:00:00 24.3 5 Norte 20 Este 0 -- -- 26
2019-05-21 17:00:00 24.8 8 Nordeste 26 Nordeste 0 -- -- 25
2019-05-21 16:00:00 23 10 Nordeste 25 Este 0 -- -- 29
2019-05-21 15:00:00 23.6 10 Este 25 Este 0 -- -- 29
2019-05-21 14:00:00 22.2 9 Este 24 Este 0 -- -- 33
2019-05-21 13:00:00 20.6 6 Norte 16 Este 0 -- -- 37
2019-05-21 12:00:00 17.8 5 Nordeste 17 Nordeste 0 -- -- 45
2019-05-21 11:00:00 15.1 6 Nordeste 12 Nordeste 0 -- -- 57
2019-05-21 10:00:00 13.8 3 Este 9 Este 0 -- -- 62
2019-05-21 09:00:00 12.3 7 Este 10 Este 0 -- -- 63
2019-05-21 08:00:00 7.2 6 Norte 13 Nordeste 0 -- -- 83
2019-05-21 07:00:00 5.2 11 Nordeste 14 Nordeste 0 -- -- 89
2019-05-21 06:00:00 5.9 8 Norte 14 Nordeste 0 -- -- 80
2019-05-21 05:00:00 8.1 4 Nordeste 9 Nordeste 0 -- -- 73
2019-05-21 04:00:00 9.1 3 Sur 5 Sudeste 0 -- -- 66
2019-05-21 03:00:00 10 0 Calma 10 Este 0 -- -- 63
2019-05-21 02:00:00 10.8 5 Oeste 15 Oeste 0 -- -- 60
2019-05-21 01:00:00 10.3 10 Oeste 14 Oeste 0 -- -- 61
2019-05-21 00:00:00 11 9 Oeste 17 Oeste 0 -- -- 58
2019-05-20 23:00:00 12.6 9 Oeste 15 Oeste 0 -- -- 53
2019-05-20 22:00:00 15 10 Oeste 15 Oeste 0 -- -- 43
2019-05-20 21:00:00 18.8 11 Oeste 30 Sudoeste 0 -- -- 32
2019-05-20 20:00:00 19.1 15 Oeste 25 Sudoeste 0 -- -- 30
2019-05-20 19:00:00 20.4 15 Oeste 30 Sudoeste 0 -- -- 30
2019-05-20 18:00:00 20.9 15 Sudoeste 29 Sudoeste 0 -- -- 29
2019-05-20 17:00:00 21.2 15 Oeste 37 Sur 0 -- -- 31
2019-05-20 16:00:00 20.1 4 Norte 17 Nordeste 0 -- -- 34
2019-05-20 15:00:00 18.5 6 Sudoeste 16 Oeste 0 -- -- 36
2019-05-20 14:00:00 18 6 Oeste 25 Sur 0 -- -- 37
2019-05-20 13:00:00 17.4 10 Sudeste 18 Sudeste 0 -- -- 42
2019-05-20 12:00:00 14.6 5 Oeste 12 Oeste 0 -- -- 51
2019-05-20 11:00:00 12.4 6 Sudoeste 10 Oeste 0 -- -- 58
2019-05-20 10:00:00 11.1 5 Este 15 Este 0 -- -- 62
2019-05-20 09:00:00 9.2 5 Este 10 Nordeste 0 -- -- 69
2019-05-20 08:00:00 6.1 6 Nordeste 17 Nordeste 0 -- -- 81
2019-05-20 07:00:00 4.7 6 Nordeste 12 Nordeste 0 -- -- 85
2019-05-20 06:00:00 5 10 Nordeste 16 Nordeste 0 -- -- 84
2019-05-20 05:00:00 5.4 12 Nordeste 16 Nordeste 0 -- -- 83
2019-05-20 04:00:00 5.9 10 Nordeste 19 Nordeste 0 -- -- 82
2019-05-20 03:00:00 6.4 15 Nordeste 26 Nordeste 0 -- -- 80
2019-05-20 02:00:00 7 15 Nordeste 27 Nordeste 0 -- -- 77
2019-05-20 01:00:00 8 15 Nordeste 22 Nordeste 0 -- -- 75
2019-05-20 00:00:00 9.5 8 Norte 21 Nordeste 0 -- -- 67
2019-05-19 23:00:00 12.3 4 Este 5 Este 0 -- -- 38
2019-05-19 22:00:00 13.1 5 Nordeste 8 Nordeste 0 -- -- 39
2019-05-19 21:00:00 17.4 7 Norte 13 Oeste 0 -- -- 28
2019-05-19 20:00:00 19.5 6 Sudoeste 21 Sudoeste 0 -- -- 24
2019-05-19 19:00:00 19.6 8 Noroeste 26 Norte 0 -- -- 24
2019-05-19 18:00:00 19.2 10 Sudoeste 25 Oeste 0 -- -- 25
2019-05-19 17:00:00 18.3 9 Oeste 23 Sudoeste 0 -- -- 27
2019-05-19 16:00:00 17.7 9 Sur 35 Sudoeste 0 -- -- 29
2019-05-19 15:00:00 16.3 5 Noroeste 25 Sudoeste 0 -- -- 34
2019-05-19 14:00:00 15.6 8 Oeste 20 Noroeste 0 -- -- 37
2019-05-19 13:00:00 15 8 Oeste 22 Sudoeste 0 -- -- 40
2019-05-19 12:00:00 13 9 Oeste 15 Oeste 0 -- -- 48
2019-05-19 11:00:00 11.4 5 Noroeste 21 Noroeste 0 -- -- 54
2019-05-19 10:00:00 9.5 12 Noroeste 18 Oeste 0 -- -- 63
2019-05-19 09:00:00 7.1 7 Oeste 10 Oeste 0 -- -- 73
2019-05-19 08:00:00 5.1 6 Oeste 9 Oeste 0 -- -- 80
2019-05-19 07:00:00 2.5 4 Oeste 8 Oeste 0 -- -- 88
2019-05-19 06:00:00 3.4 3 Sudoeste 14 Noroeste 0 -- -- 89
2019-05-19 05:00:00 4 11 Noroeste 18 Noroeste 0 -- -- 86
2019-05-19 04:00:00 5.2 10 Noroeste 16 Noroeste 0 -- -- 82
2019-05-19 03:00:00 8 10 Noroeste 24 Noroeste 0 -- -- 70
2019-05-19 02:00:00 8.6 17 Noroeste 24 Noroeste 0 -- -- 67
2019-05-19 01:00:00 7.7 11 Norte 18 Noroeste 0 -- -- 72
2019-05-19 00:00:00 8.5 13 Noroeste 24 Noroeste 0 -- -- 68
2019-05-18 23:00:00 10.4 10 Noroeste 26 Noroeste 0 -- -- 62
2019-05-18 22:00:00 11.2 15 Noroeste 24 Noroeste 0 -- -- 59
2019-05-18 21:00:00 11 5 Norte 16 Norte 0 -- -- 67
2019-05-18 20:00:00 12 13 Norte 34 Norte 0 -- -- 55
2019-05-18 19:00:00 14.8 17 Oeste 39 Oeste 0 -- -- 41
2019-05-18 18:00:00 14.3 26 Oeste 42 Oeste 0 -- -- 44
2019-05-18 17:00:00 14.4 19 Oeste 34 Oeste 0 -- -- 39
2019-05-18 16:00:00 15.6 17 Oeste 35 Sudoeste 0 -- -- 36
2019-05-18 15:00:00 15.4 22 Oeste 36 Sudoeste 0 -- -- 37
2019-05-18 14:00:00 15.8 18 Oeste 33 Oeste 0 -- -- 37
2019-05-18 13:00:00 14.3 15 Noroeste 32 Noroeste 0 -- -- 41
2019-05-18 12:00:00 13 12 Oeste 27 Noroeste 0 -- -- 48
2019-05-18 11:00:00 11 15 Oeste 32 Oeste 0 -- -- 53
2019-05-18 10:00:00 9.4 13 Oeste 21 Oeste 0 -- -- 60
2019-05-18 09:00:00 6.5 9 Oeste 18 Oeste 0 -- -- 74
2019-05-18 08:00:00 4.1 3 Sudoeste 7 Sudoeste 0 -- -- 79
2019-05-18 07:00:00 1.2 3 Oeste 11 Oeste 0 -- -- 87
2019-05-18 06:00:00 1.9 8 Oeste 15 Oeste 0 -- -- 86
2019-05-18 05:00:00 2.5 8 Oeste 14 Oeste 0 -- -- 84
2019-05-18 04:00:00 2.5 8 Oeste 15 Oeste 0 -- -- 86
2019-05-18 03:00:00 3.5 8 Oeste 12 Oeste 0 -- -- 81
2019-05-18 02:00:00 4.2 9 Noroeste 17 Noroeste 0 -- -- 80
2019-05-18 01:00:00 5.7 13 Noroeste 18 Noroeste 0 -- -- 73
2019-05-18 00:00:00 7.2 14 Noroeste 28 Noroeste 0 -- -- 67
2019-05-17 23:00:00 8.8 18 Noroeste 30 Noroeste 0 -- -- 61
2019-05-17 22:00:00 10.5 14 Noroeste 35 Oeste 0 -- -- 55
2019-05-17 21:00:00 14.1 20 Noroeste 44 Oeste 0 -- -- 44
2019-05-17 20:00:00 14.4 24 Oeste 44 Oeste 0 -- -- 41
2019-05-17 19:00:00 15.2 28 Oeste 46 Oeste 0 -- -- 40
2019-05-17 18:00:00 17.9 24 Oeste 41 Oeste 0 -- -- 33
2019-05-17 17:00:00 15.3 24 Noroeste 50 Oeste 0 -- -- 42
2019-05-17 16:00:00 16.2 27 Oeste 41 Oeste 0 -- -- 43
2019-05-17 15:00:00 16.1 21 Oeste 39 Noroeste 0 -- -- 40
2019-05-17 14:00:00 15.2 27 Noroeste 42 Oeste 0 -- -- 42
2019-05-17 13:00:00 14 30 Oeste 48 Noroeste 0 -- -- 46
2019-05-17 12:00:00 13 31 Oeste 48 Oeste 0 -- -- 54
2019-05-17 11:00:00 12.4 26 Oeste 43 Oeste 0 -- -- 60
2019-05-17 10:00:00 11.5 27 Oeste 45 Oeste 0 -- -- 65
2019-05-17 09:00:00 9.4 22 Oeste 42 Oeste 0 -- -- 75
2019-05-17 08:00:00 7.7 26 Oeste 38 Oeste 0 -- -- 82
2019-05-17 07:00:00 6.6 27 Oeste 38 Oeste 0 -- -- 86
2019-05-17 06:00:00 7.1 21 Oeste 38 Oeste 0 -- -- 83
2019-05-17 05:00:00 7.9 25 Oeste 41 Oeste 0 -- -- 79
2019-05-17 04:00:00 7.9 26 Oeste 43 Oeste 0 -- -- 81
2019-05-17 03:00:00 7.4 17 Oeste 30 Oeste 0 -- -- 84
2019-05-17 02:00:00 7 15 Oeste 24 Oeste 0 -- -- 86
2019-05-17 01:00:00 7.8 13 Oeste 22 Oeste 0 -- -- 84
2019-05-17 00:00:00 9.6 15 Oeste 30 Noroeste 0 -- -- 81
2019-05-16 23:00:00 9.9 18 Noroeste 28 Noroeste 0 -- -- 83
2019-05-16 22:00:00 9.4 16 Noroeste 41 Noroeste 0.2 -- -- 86
2019-05-16 21:00:00 12.4 33 Noroeste 56 Oeste 1 -- -- 75
2019-05-16 20:00:00 16.7 36 Oeste 56 Oeste 0 -- -- 54
2019-05-16 19:00:00 17.7 36 Oeste 56 Oeste 0 -- -- 48
2019-05-16 18:00:00 20.7 31 Oeste 45 Oeste 0 -- -- 32
2019-05-16 17:00:00 19.5 26 Oeste 40 Oeste 0 -- -- 50
2019-05-16 16:00:00 19.4 25 Oeste 50 Oeste 0 -- -- 52
2019-05-16 15:00:00 23.5 30 Oeste 48 Oeste 0 -- -- 36
2019-05-16 14:00:00 26 24 Sudoeste 37 Oeste 0 -- -- 30
2019-05-16 13:00:00 23.7 21 Oeste 32 Oeste 0 -- -- 32
2019-05-16 12:00:00 21.1 18 Oeste 31 Oeste 0 -- -- 36
2019-05-16 11:00:00 18.8 17 Oeste 24 Oeste 0 -- -- 46
2019-05-16 10:00:00 16.9 10 Sudoeste 21 Sudoeste 0 -- -- 52
2019-05-16 09:00:00 15.9 6 Sudoeste 16 Sudoeste 0 -- -- 58
2019-05-16 08:00:00 11.3 6 Nordeste 9 Nordeste 0 -- -- 66
2019-05-16 07:00:00 11.1 6 Nordeste 9 Nordeste 0 -- -- 66
2019-05-16 06:00:00 12.7 6 Norte 9 Norte 0 -- -- 58
2019-05-16 05:00:00 13.1 8 Norte 10 Norte 0 -- -- 56
2019-05-16 04:00:00 13 2 Sudoeste 10 Nordeste 0 -- -- 57
2019-05-16 03:00:00 13.5 11 Nordeste 16 Nordeste 0 -- -- 55
2019-05-16 02:00:00 14.8 12 Nordeste 21 Este 0 -- -- 50
2019-05-16 01:00:00 18.3 13 Este 20 Este 0 -- -- 37
2019-05-16 00:00:00 21.2 10 Este 18 Nordeste 0 -- -- 30
2019-05-15 23:00:00 21 8 Nordeste 13 Nordeste 0 -- -- 33
2019-05-15 22:00:00 24.3 3 Noroeste 8 Oeste 0 -- -- 25
2019-05-15 21:00:00 27.4 2 Sur 10 Este 0 -- -- 23
2019-05-15 20:00:00 29.3 6 Norte 17 Noroeste 0 -- -- 20
2019-05-15 19:00:00 31.2 11 Oeste 20 Oeste 0 -- -- 18
2019-05-15 18:00:00 31.8 9 Oeste 21 Noroeste 0 -- -- 18
2019-05-15 17:00:00 30.6 8 Noroeste 27 Oeste 0 -- -- 20
2019-05-15 16:00:00 30.3 11 Oeste 21 Oeste 0 -- -- 19
2019-05-15 15:00:00 28.7 12 Oeste 18 Oeste 0 -- -- 20
2019-05-15 14:00:00 28.5 7 Oeste 17 Sudeste 0 -- -- 20
2019-05-15 13:00:00 26.9 7 Nordeste 14 Nordeste 0 -- -- 20
2019-05-15 12:00:00 24.5 5 Nordeste 9 Este 0 -- -- 24
2019-05-15 11:00:00 21.6 4 Nordeste 8 Nordeste 0 -- -- 33
2019-05-15 10:00:00 17.9 3 Nordeste 6 Nordeste 0 -- -- 42
2019-05-15 09:00:00 15.6 3 Nordeste 5 Nordeste 0 -- -- 45
2019-05-15 08:00:00 12.4 3 Nordeste 12 Este 0 -- -- 56
2019-05-15 07:00:00 7.4 3 Este 9 Nordeste 0 -- -- 69
2019-05-15 06:00:00 8.2 6 Nordeste 15 Norte 0 -- -- 64
2019-05-15 05:00:00 9.3 7 Nordeste 12 Nordeste 0 -- -- 58
2019-05-15 04:00:00 9 10 Nordeste 14 Norte 0 -- -- 60
2019-05-15 03:00:00 9.8 10 Nordeste 15 Norte 0 -- -- 59
2019-05-15 02:00:00 11.4 13 Norte 15 Norte 0 -- -- 52
2019-05-15 01:00:00 12.4 9 Norte 13 Norte 0 -- -- 49
2019-05-15 00:00:00 15.3 10 Norte 13 Nordeste 0 -- -- 40
2019-05-14 23:00:00 16.6 10 Nordeste 12 Nordeste 0 -- -- 41
2019-05-14 22:00:00 21 4 Noroeste 7 Nordeste 0 -- -- 25
2019-05-14 21:00:00 26.9 8 Norte 17 Norte 0 -- -- 19
2019-05-14 20:00:00 29.6 9 Noroeste 17 Noroeste 0 -- -- 14
2019-05-14 19:00:00 30 9 Noroeste 23 Oeste 0 -- -- 15
2019-05-14 18:00:00 30 10 Oeste 20 Norte 0 -- -- 15
2019-05-14 17:00:00 29.5 9 Noroeste 19 Este 0 -- -- 17
2019-05-14 16:00:00 28.3 6 Oeste 16 Nordeste 0 -- -- 17
2019-05-14 15:00:00 26.8 6 Norte 19 Noroeste 0 -- -- 19
2019-05-14 14:00:00 25 8 Nordeste 17 Norte 0 -- -- 22
2019-05-14 13:00:00 22.8 9 Nordeste 18 Este 0 -- -- 22
2019-05-14 12:00:00 19.6 9 Nordeste 23 Este 0 -- -- 31
2019-05-14 11:00:00 16.9 9 Nordeste 20 Nordeste 0 -- -- 35
2019-05-14 10:00:00 13.3 9 Nordeste 18 Nordeste 0 -- -- 44
2019-05-14 09:00:00 10.1 6 Nordeste 13 Nordeste 0 -- -- 54
2019-05-14 08:00:00 7.4 4 Norte 11 Nordeste 0 -- -- 60
2019-05-14 07:00:00 4.9 6 Norte 10 Noroeste 0 -- -- 67
2019-05-14 06:00:00 5.9 6 Norte 16 Nordeste 0 -- -- 61
2019-05-14 05:00:00 7.3 10 Nordeste 24 Nordeste 0 -- -- 57
2019-05-14 04:00:00 8.5 12 Nordeste 27 Este 0 -- -- 52
2019-05-14 03:00:00 10.1 10 Nordeste 32 Este 0 -- -- 44
2019-05-14 02:00:00 10.8 12 Nordeste 20 Nordeste 0 -- -- 39
2019-05-14 01:00:00 11.9 16 Este 22 Nordeste 0 -- -- 32
2019-05-14 00:00:00 13.4 11 Este 21 Nordeste 0 -- -- 26
2019-05-13 23:00:00 14.6 14 Este 30 Nordeste 0 -- -- 31
2019-05-13 22:00:00 17.6 13 Este 39 Nordeste 0 -- -- 29
2019-05-13 21:00:00 21 31 Nordeste 43 Nordeste 0 -- -- 22
2019-05-13 20:00:00 24.7 25 Nordeste 38 Nordeste 0 -- -- 19
2019-05-13 19:00:00 26.3 25 Nordeste 36 Nordeste 0 -- -- 18
2019-05-13 18:00:00 26.8 20 Nordeste 36 Nordeste 0 -- -- 17
2019-05-13 17:00:00 26.6 23 Nordeste 37 Nordeste 0 -- -- 18
2019-05-13 16:00:00 25.9 22 Nordeste 34 Nordeste 0 -- -- 17
2019-05-13 15:00:00 24.6 22 Nordeste 35 Nordeste 0 -- -- 19
2019-05-13 14:00:00 23.2 19 Nordeste 35 Nordeste 0 -- -- 23
2019-05-13 13:00:00 21.3 21 Nordeste 33 Nordeste 0 -- -- 27
2019-05-13 12:00:00 18.7 22 Nordeste 35 Nordeste 0 -- -- 31
2019-05-13 11:00:00 16.4 22 Nordeste 32 Nordeste 0 -- -- 35
2019-05-13 10:00:00 14.2 13 Nordeste 21 Norte 0 -- -- 44
2019-05-13 09:00:00 10.6 3 Sudoeste 8 Nordeste 0 -- -- 61
2019-05-13 08:00:00 8.2 0 Calma 6 Oeste 0 -- -- 72
2019-05-13 07:00:00 4.7 2 Noroeste 9 Este 0 -- -- 82
2019-05-13 06:00:00 6.1 5 Este 13 Este 0 -- -- 80
2019-05-13 05:00:00 6.4 7 Este 19 Este 0 -- -- 78
2019-05-13 04:00:00 8.5 10 Este 21 Nordeste 0 -- -- 67
2019-05-13 03:00:00 9.7 6 Nordeste 19 Este 0 -- -- 58
2019-05-13 02:00:00 9.6 9 Este 17 Este 0 -- -- 61
2019-05-13 01:00:00 10.4 9 Este 17 Nordeste 0 -- -- 60
2019-05-13 00:00:00 13.3 18 Nordeste 31 Nordeste 0 -- -- 50
2019-05-12 23:00:00 11.4 10 Nordeste 18 Nordeste 0 -- -- 54
2019-05-12 22:00:00 15.5 14 Nordeste 31 Nordeste 0 -- -- 37
2019-05-12 21:00:00 20.4 21 Nordeste 31 Nordeste 0 -- -- 26
2019-05-12 20:00:00 23.6 23 Este 34 Este 0 -- -- 20
2019-05-12 19:00:00 25.1 20 Nordeste 31 Nordeste 0 -- -- 16
2019-05-12 18:00:00 25.5 15 Nordeste 30 Nordeste 0 -- -- 17
2019-05-12 17:00:00 24.9 14 Norte 27 Nordeste 0 -- -- 16
2019-05-12 16:00:00 24.6 14 Nordeste 29 Nordeste 0 -- -- 20
2019-05-12 15:00:00 22.9 14 Nordeste 33 Este 0 -- -- 20
2019-05-12 14:00:00 21.9 17 Nordeste 30 Nordeste 0 -- -- 19
2019-05-12 13:00:00 20.4 17 Nordeste 34 Nordeste 0 -- -- 19
2019-05-12 12:00:00 18.1 23 Nordeste 33 Norte 0 -- -- 26
2019-05-12 11:00:00 16.2 23 Nordeste 35 Nordeste 0 -- -- 28
2019-05-12 10:00:00 13.3 12 Este 24 Nordeste 0 -- -- 45
2019-05-12 09:00:00 10.2 16 Este 24 Nordeste 0 -- -- 53
2019-05-12 08:00:00 8.1 10 Nordeste 22 Nordeste 0 -- -- 58
2019-05-12 07:00:00 6.7 11 Nordeste 18 Nordeste 0 -- -- 65
2019-05-12 06:00:00 7.1 8 Nordeste 26 Este 0 -- -- 67
2019-05-12 05:00:00 7.8 11 Sudeste 21 Este 0 -- -- 64
2019-05-12 04:00:00 9.1 16 Nordeste 30 Nordeste 0 -- -- 62
2019-05-12 03:00:00 9.4 10 Este 30 Nordeste 0 -- -- 66
2019-05-12 02:00:00 10.4 19 Nordeste 29 Este 0 -- -- 63
2019-05-12 01:00:00 11.3 18 Nordeste 27 Nordeste 0 -- -- 56
2019-05-12 00:00:00 12.8 19 Nordeste 37 Este 0 -- -- 49
2019-05-11 23:00:00 14.3 24 Este 41 Este 0 -- -- 50
2019-05-11 22:00:00 16.9 22 Este 31 Este 0 -- -- 43
2019-05-11 21:00:00 19.2 20 Este 32 Este 0 -- -- 38
2019-05-11 20:00:00 20.9 25 Este 35 Este 0 -- -- 35
2019-05-11 19:00:00 23.3 18 Nordeste 30 Nordeste 0 -- -- 30
2019-05-11 18:00:00 23.9 10 Norte 27 Norte 0 -- -- 25
2019-05-11 17:00:00 23.5 15 Nordeste 24 Nordeste 0 -- -- 27
2019-05-11 16:00:00 22.8 5 Norte 29 Nordeste 0 -- -- 28
2019-05-11 15:00:00 21.2 7 Nordeste 26 Nordeste 0 -- -- 32
2019-05-11 14:00:00 21.2 14 Nordeste 29 Nordeste 0 -- -- 39
2019-05-11 13:00:00 19 11 Norte 23 Oeste 0 -- -- 47
2019-05-11 12:00:00 17 8 Norte 18 Norte 0 -- -- 56
2019-05-11 11:00:00 15 11 Noroeste 19 Noroeste 0 -- -- 61
2019-05-11 10:00:00 12.9 11 Noroeste 18 Norte 0 -- -- 68
2019-05-11 09:00:00 10.3 5 Sudoeste 7 Oeste 0 -- -- 85
2019-05-11 08:00:00 8.5 0 Calma 6 Sudeste 0 -- -- 89
2019-05-11 07:00:00 5.8 0 Calma 13 Noroeste 0 -- -- 93
2019-05-11 06:00:00 7.1 11 Noroeste 12 Noroeste 0 -- -- 94
2019-05-11 05:00:00 7.2 7 Noroeste 9 Oeste 0 -- -- 90
2019-05-11 04:00:00 8.2 0 Calma 6 Sudoeste 0 -- -- 88
2019-05-11 03:00:00 9.5 4 Sur 10 Oeste 0 -- -- 83
2019-05-11 02:00:00 10.5 9 Oeste 14 Oeste 0 -- -- 79
2019-05-11 01:00:00 11.8 11 Oeste 27 Oeste 0 -- -- 72
2019-05-11 00:00:00 11.3 6 Noroeste 18 Oeste 0 -- -- 74
2019-05-10 23:00:00 13.4 13 Oeste 25 Sudoeste 0 -- -- 64
2019-05-10 22:00:00 16.2 19 Oeste 33 Oeste 0 -- -- 51
2019-05-10 21:00:00 19.5 24 Oeste 37 Oeste 0 -- -- 44
2019-05-10 20:00:00 21.7 26 Oeste 45 Oeste 0 -- -- 35
2019-05-10 19:00:00 22.8 28 Oeste 48 Oeste 0 -- -- 39
2019-05-10 18:00:00 23 33 Oeste 54 Sudoeste 0 -- -- 36
2019-05-10 17:00:00 22.6 36 Oeste 50 Sudoeste 0 -- -- 44
2019-05-10 16:00:00 22.2 34 Sudoeste 51 Sudoeste 0 -- -- 42
2019-05-10 15:00:00 22.2 32 Sudoeste 51 Sudoeste 0 -- -- 45
2019-05-10 14:00:00 21 37 Sudoeste 53 Sudoeste 0 -- -- 52
2019-05-10 13:00:00 19.8 33 Oeste 55 Sudoeste 0 -- -- 60
2019-05-10 12:00:00 19 33 Sudoeste 46 Sudoeste 0 -- -- 67
2019-05-10 11:00:00 16.3 30 Sudoeste 41 Sudoeste 0 -- -- 85
2019-05-10 10:00:00 14.8 16 Sudoeste 31 Sudoeste 0 -- -- 92
2019-05-10 09:00:00 14.8 21 Sudoeste 33 Sudoeste 0 -- -- 90
2019-05-10 08:00:00 13.7 20 Sudoeste 30 Sudoeste 0.4 -- -- 94
2019-05-10 07:00:00 13.6 17 Sudoeste 28 Sudoeste 0.4 -- -- 95
2019-05-10 06:00:00 13.8 19 Sudoeste 28 Sudoeste 0 -- -- 94
2019-05-10 05:00:00 14.3 15 Sudoeste 26 Sur 0 -- -- 91
2019-05-10 04:00:00 15.2 15 Sudoeste 37 Sudoeste 0 -- -- 83
2019-05-10 03:00:00 15.3 25 Sudoeste 33 Sudoeste 0 -- -- 82
2019-05-10 02:00:00 14.7 17 Sudoeste 34 Sudoeste 0 -- -- 85
2019-05-10 01:00:00 14.6 19 Sudoeste 36 Oeste 0 -- -- 86
2019-05-10 00:00:00 15.2 27 Sudoeste 46 Sudoeste 0 -- -- 84
2019-05-09 23:00:00 15.8 31 Sudoeste 50 Sudoeste 0 -- -- 80
2019-05-09 22:00:00 15.9 28 Sudoeste 49 Sudoeste 0 -- -- 78
2019-05-09 21:00:00 17.2 29 Sudoeste 63 Sudoeste 0 -- -- 72
2019-05-09 20:00:00 17.2 32 Sudoeste 52 Sudoeste 0 -- -- 76
2019-05-09 19:00:00 17.5 40 Sudoeste 57 Sudoeste 0 -- -- 75
2019-05-09 18:00:00 17.5 42 Sudoeste 62 Sudoeste 0 -- -- 69
2019-05-09 17:00:00 18.7 39 Sudoeste 54 Sudoeste 0 -- -- 65
2019-05-09 16:00:00 17.2 35 Sudoeste 48 Sudoeste 0 -- -- 66
2019-05-09 15:00:00 18 34 Sudoeste 44 Oeste 0 -- -- 56
2019-05-09 14:00:00 18 19 Sudoeste 35 Sudoeste 0 -- -- 50
2019-05-09 13:00:00 15.7 22 Oeste 30 Oeste 0 -- -- 50
2019-05-09 12:00:00 13.7 14 Oeste 30 Sudoeste 0 -- -- 63
2019-05-09 11:00:00 11.8 20 Sudoeste 33 Sudoeste 0 -- -- 69
2019-05-09 10:00:00 10.9 18 Sudoeste 30 Sudoeste 0 -- -- 76
2019-05-09 09:00:00 9.7 19 Sudoeste 26 Sudoeste 0 -- -- 84
2019-05-09 08:00:00 7.7 13 Sudoeste 17 Sudoeste 0 -- -- 92
2019-05-09 07:00:00 6.2 4 Oeste 10 Oeste 0 -- -- 93
2019-05-09 06:00:00 5.2 0 Calma 14 Oeste 0 -- -- 90
2019-05-09 05:00:00 4.9 12 Sudoeste 23 Sudoeste 0 -- -- 90
2019-05-09 04:00:00 6.1 18 Sudoeste 25 Sudoeste 0 -- -- 84
2019-05-09 03:00:00 6.3 20 Sudoeste 23 Sudoeste 0 -- -- 83
2019-05-09 02:00:00 7.3 8 Oeste 13 Sudoeste 0 -- -- 83
2019-05-09 01:00:00 9 15 Oeste 36 Oeste 0 -- -- 77
2019-05-09 00:00:00 9.5 13 Oeste 29 Oeste 0 -- -- 72
2019-05-08 23:00:00 10.2 16 Oeste 39 Oeste 0 -- -- 66
2019-05-08 22:00:00 11.4 21 Oeste 50 Oeste 0 -- -- 59
2019-05-08 21:00:00 13.2 39 Oeste 63 Oeste 0 -- -- 47
2019-05-08 20:00:00 14.9 44 Oeste 66 Oeste 0 -- -- 45
2019-05-08 19:00:00 16 45 Oeste 73 Sudoeste 0 -- -- 38
2019-05-08 18:00:00 17.6 42 Oeste 68 Sudoeste 0 -- -- 43
2019-05-08 17:00:00 17.5 49 Sudoeste 77 Sudoeste 0 -- -- 42
2019-05-08 16:00:00 17.8 54 Sudoeste 73 Sudoeste 0 -- -- 42
2019-05-08 15:00:00 16.7 46 Sudoeste 82 Sudoeste 0 -- -- 46
2019-05-08 14:00:00 17 53 Sudoeste 72 Sudoeste 0 -- -- 46
2019-05-08 13:00:00 15.8 46 Sudoeste 60 Sudoeste 0 -- -- 58
2019-05-08 12:00:00 14.6 48 Sudoeste 75 Sudoeste 0 -- -- 67
2019-05-08 11:00:00 13.4 38 Sudoeste 63 Oeste 1.2 -- -- 88
2019-05-08 10:00:00 14.6 40 Sudoeste 55 Sudoeste 0 -- -- 80
2019-05-08 09:00:00 13.6 37 Sudoeste 50 Sudoeste 0 -- -- 84
2019-05-08 08:00:00 13.1 23 Sudoeste 40 Sudoeste 0 -- -- 88
2019-05-08 07:00:00 12.7 21 Sudoeste 40 Sudoeste 0 -- -- 91
2019-05-08 06:00:00 13.3 22 Sudoeste 38 Sudoeste 0 -- -- 87
2019-05-08 05:00:00 13.1 27 Sudoeste 45 Sudoeste 0 -- -- 90
2019-05-08 04:00:00 13.4 24 Sudoeste 34 Sudoeste 0 -- -- 85
2019-05-08 03:00:00 12.7 16 Sudoeste 27 Sudoeste 0 -- -- 87
2019-05-08 02:00:00 12.7 12 Sudoeste 29 Sur 0 -- -- 89
2019-05-08 01:00:00 13 21 Sudoeste 38 Sudoeste 0 -- -- 85
2019-05-08 00:00:00 12.5 16 Sudoeste 33 Sudoeste 0 -- -- 85
2019-05-07 23:00:00 12.6 26 Sudoeste 48 Sudoeste 0 -- -- 84
2019-05-07 22:00:00 13.1 33 Sudoeste 49 Oeste 1.8 -- -- 85
2019-05-07 21:00:00 14 21 Sudoeste 37 Sudoeste 1.6 -- -- 91
2019-05-07 20:00:00 15.7 25 Sudoeste 35 Sudoeste 0 -- -- 80
2019-05-07 19:00:00 15.6 18 Oeste 29 Oeste 0.4 -- -- 85
2019-05-07 18:00:00 15.8 23 Oeste 39 Sudoeste 0.4 -- -- 81
2019-05-07 17:00:00 19.4 25 Oeste 39 Oeste 0 -- -- 56
2019-05-07 16:00:00 18.8 28 Sudoeste 46 Sudoeste 0 -- -- 56
2019-05-07 15:00:00 20.2 32 Sudoeste 48 Oeste 0 -- -- 50
2019-05-07 14:00:00 18.5 26 Sudoeste 40 Sudoeste 0 -- -- 57
2019-05-07 13:00:00 18.1 28 Sudoeste 40 Sudoeste 0 -- -- 54
2019-05-07 12:00:00 17.1 20 Sudoeste 33 Sudoeste 0 -- -- 60
2019-05-07 11:00:00 15.5 15 Oeste 23 Sudoeste 0 -- -- 67
2019-05-07 10:00:00 13.5 11 Sudoeste 18 Sudoeste 0 -- -- 72
2019-05-07 09:00:00 12.4 4 Sudeste 9 Este 0 -- -- 77
2019-05-07 08:00:00 8.9 4 Sudeste 9 Sur 0 -- -- 91
2019-05-07 07:00:00 8.2 6 Sudeste 11 Sudeste 0 -- -- 90
2019-05-07 06:00:00 9.6 5 Sur 10 Sudeste 0 -- -- 84
2019-05-07 05:00:00 10 5 Sudoeste 17 Sudoeste 0 -- -- 84
2019-05-07 04:00:00 10.7 7 Oeste 17 Sudoeste 0 -- -- 77
2019-05-07 03:00:00 11.8 8 Sudoeste 14 Sudoeste 0 -- -- 68
2019-05-07 02:00:00 12.4 4 Sur 18 Oeste 0 -- -- 59
2019-05-07 01:00:00 14.1 12 Oeste 21 Oeste 0 -- -- 55
2019-05-07 00:00:00 14.9 14 Oeste 24 Oeste 0 -- -- 52
2019-05-06 23:00:00 16.4 15 Sudoeste 19 Sudoeste 0 -- -- 51
2019-05-06 22:00:00 17.8 9 Oeste 27 Oeste 0 -- -- 45
2019-05-06 21:00:00 20.1 22 Oeste 36 Oeste 0 -- -- 36
2019-05-06 20:00:00 21.2 28 Oeste 41 Oeste 0 -- -- 35
2019-05-06 19:00:00 23.8 26 Oeste 40 Oeste 0 -- -- 32
2019-05-06 18:00:00 24.8 22 Oeste 37 Sudoeste 0 -- -- 36
2019-05-06 17:00:00 25.3 12 Oeste 24 Sudoeste 0 -- -- 32
2019-05-06 16:00:00 24 12 Noroeste 28 Oeste 0 -- -- 34
2019-05-06 15:00:00 22.9 8 Oeste 23 Sudoeste 0 -- -- 37
2019-05-06 14:00:00 22.2 6 Oeste 15 Sur 0 -- -- 36
2019-05-06 13:00:00 23.2 3 Norte 11 Norte 0 -- -- 28
2019-05-06 12:00:00 16.8 4 Oeste 8 Noroeste 0 -- -- 33
2019-05-06 11:00:00 13.8 3 Noroeste 8 Noroeste 0 -- -- 40
2019-05-06 10:00:00 11.1 2 Noroeste 6 Noroeste 0 -- -- 46
2019-05-06 09:00:00 8.2 3 Sudoeste 6 Sudoeste 0 -- -- 53
2019-05-06 08:00:00 4.7 4 Sudeste 10 Este 0 -- -- 65
2019-05-06 07:00:00 3.4 11 Este 13 Este 0 -- -- 69
2019-05-06 06:00:00 2.8 11 Este 15 Este 0 -- -- 74
2019-05-06 05:00:00 3.6 10 Este 13 Este 0 -- -- 71
2019-05-06 04:00:00 5.4 6 Sudeste 9 Sudeste 0 -- -- 59
2019-05-06 03:00:00 5.7 6 Sudeste 8 Este 0 -- -- 58
2019-05-06 02:00:00 7.1 5 Sudeste 10 Este 0 -- -- 51
2019-05-06 01:00:00 8.4 7 Este 18 Sudeste 0 -- -- 46
2019-05-06 00:00:00 8.7 15 Sudeste 23 Sudeste 0 -- -- 46
2019-05-05 23:00:00 8.7 12 Este 16 Este 0 -- -- 54
2019-05-05 22:00:00 11.2 11 Sudeste 16 Sudeste 0 -- -- 45
2019-05-05 21:00:00 16.2 8 Este 13 Este 0 -- -- 30
2019-05-05 20:00:00 20 5 Sudeste 17 Sur 0 -- -- 22
2019-05-05 19:00:00 20.8 7 Sudeste 15 Sudeste 0 -- -- 22
2019-05-05 18:00:00 19.4 10 Sudeste 24 Sudeste 0 -- -- 21
2019-05-05 17:00:00 18.9 7 Nordeste 17 Este 0 -- -- 24
2019-05-05 16:00:00 18.5 8 Nordeste 24 Sudeste 0 -- -- 27
2019-05-05 15:00:00 16.5 9 Sudeste 23 Sudeste 0 -- -- 28
2019-05-05 14:00:00 15.6 11 Sudeste 22 Sudeste 0 -- -- 31
2019-05-05 13:00:00 13.8 11 Sudeste 26 Este 0 -- -- 38
2019-05-05 12:00:00 11.9 17 Este 33 Sudeste 0 -- -- 41
2019-05-05 11:00:00 10.4 21 Sudeste 36 Sudeste 0 -- -- 51
2019-05-05 10:00:00 8.5 24 Sudeste 36 Sudeste 0 -- -- 60
2019-05-05 09:00:00 7 20 Sudeste 32 Sudeste 0 -- -- 68
2019-05-05 08:00:00 5.3 13 Sudeste 19 Sudeste 0 -- -- 79
2019-05-05 07:00:00 4.2 10 Sudeste 18 Sudeste 0 -- -- 82
2019-05-05 06:00:00 5.1 11 Sudeste 16 Sudeste 0 -- -- 80
2019-05-05 05:00:00 5.6 8 Sudeste 33 Sudeste 0 -- -- 78
2019-05-05 04:00:00 7.1 24 Sudeste 38 Sudeste 0 -- -- 72
2019-05-05 03:00:00 7.6 21 Sudeste 42 Sudeste 0 -- -- 72
2019-05-05 02:00:00 8.6 26 Sudeste 43 Sudeste 0 -- -- 73
2019-05-05 01:00:00 8.7 24 Sudeste 40 Sudeste 0 -- -- 74
2019-05-05 00:00:00 9.5 32 Sudeste 43 Sudeste 0 -- -- 69
2019-05-04 23:00:00 11.8 32 Sudeste 45 Sudeste 0 -- -- 60
2019-05-04 22:00:00 16.5 5 Oeste 6 Oeste 0 -- -- 39
2019-05-04 21:00:00 21.6 2 Oeste 5 Oeste 0 -- -- 29
2019-05-04 20:00:00 22.9 4 Sudeste 15 Sudeste 0 -- -- 26
2019-05-04 19:00:00 22.3 6 Nordeste 16 Norte 0 -- -- 28
2019-05-04 18:00:00 21.7 9 Nordeste 23 Este 0 -- -- 28
2019-05-04 17:00:00 21.6 9 Este 24 Este 0 -- -- 26
2019-05-04 16:00:00 20.1 8 Noroeste 18 Nordeste 0 -- -- 32
2019-05-04 15:00:00 18.9 7 Norte 21 Nordeste 0 -- -- 39
2019-05-04 14:00:00 17.2 9 Norte 20 Norte 0 -- -- 46
2019-05-04 13:00:00 16.2 4 Sudeste 19 Este 0 -- -- 49
2019-05-04 12:00:00 13.8 4 Este 15 Sudeste 0 -- -- 52
2019-05-04 11:00:00 11.9 10 Sur 19 Sudeste 0 -- -- 57
2019-05-04 10:00:00 9.8 10 Sudeste 14 Sudeste 0 -- -- 63
2019-05-04 09:00:00 7.2 8 Este 11 Este 0 -- -- 77
2019-05-04 08:00:00 4.3 5 Este 7 Este 0 -- -- 86
2019-05-04 07:00:00 1.9 3 Nordeste 17 Sudeste 0 -- -- 93
2019-05-04 06:00:00 2.6 15 Este 19 Este 0 -- -- 92
2019-05-04 05:00:00 3.3 13 Sudeste 15 Este 0 -- -- 90
2019-05-04 04:00:00 3.8 5 Este 12 Este 0 -- -- 87
2019-05-04 03:00:00 5.2 11 Este 20 Sudeste 0 -- -- 82
2019-05-04 02:00:00 6.2 14 Sudeste 32 Sudeste 0 -- -- 79
2019-05-04 01:00:00 7.9 28 Sudeste 36 Sudeste 0 -- -- 71
2019-05-04 00:00:00 8.2 17 Sudeste 27 Sudeste 0 -- -- 72
2019-05-03 23:00:00 9.7 17 Sudeste 32 Sudeste 0 -- -- 66
2019-05-03 22:00:00 11.5 22 Sudeste 32 Sudeste 0 -- -- 58
2019-05-03 21:00:00 14.5 25 Sudeste 33 Sudeste 0 -- -- 49
2019-05-03 20:00:00 17.4 20 Sudeste 28 Sudeste 0 -- -- 40
2019-05-03 19:00:00 18.7 14 Sudeste 27 Sudeste 0 -- -- 38
2019-05-03 18:00:00 18.6 14 Sudeste 30 Sudeste 0 -- -- 39
2019-05-03 17:00:00 17.7 18 Sudeste 31 Sudeste 0 -- -- 42
2019-05-03 16:00:00 17.4 18 Sudeste 32 Sudeste 0 -- -- 41
2019-05-03 15:00:00 16.8 18 Sudeste 37 Sudeste 0 -- -- 48
2019-05-03 14:00:00 16 19 Sudeste 33 Sudeste 0 -- -- 46
2019-05-03 13:00:00 14.4 17 Sudeste 34 Sudeste 0 -- -- 48
2019-05-03 12:00:00 12.9 17 Sudeste 34 Sudeste 0 -- -- 51
2019-05-03 11:00:00 12.5 18 Sudeste 29 Sudeste 0 -- -- 54
2019-05-03 10:00:00 9.4 8 Sudeste 19 Sudeste 0 -- -- 67
2019-05-03 09:00:00 8.1 0 Calma 6 Este 0 -- -- 71
2019-05-03 08:00:00 4.7 0 Calma 12 Nordeste 0 -- -- 82
2019-05-03 07:00:00 3.1 0 Calma 5 Nordeste 0 -- -- 88
2019-05-03 06:00:00 3.6 0 Calma 6 Sur 0 -- -- 86
2019-05-03 05:00:00 4.7 3 Nordeste 9 Sudeste 0 -- -- 80
2019-05-03 04:00:00 6 2 Sur 27 Sudeste 0 -- -- 76
2019-05-03 03:00:00 6.4 23 Este 38 Sudeste 0 -- -- 77
2019-05-03 02:00:00 7.5 23 Sudeste 37 Sudeste 0 -- -- 73
2019-05-03 01:00:00 8.2 27 Sudeste 42 Sudeste 0 -- -- 71
2019-05-03 00:00:00 9.7 27 Sudeste 37 Sudeste 0 -- -- 67
2019-05-02 23:00:00 11.8 27 Sudeste 37 Sudeste 0 -- -- 60
2019-05-02 22:00:00 13.5 22 Sudeste 38 Sudeste 0 -- -- 55
2019-05-02 21:00:00 16.5 17 Sudeste 25 Sudeste 0 -- -- 46
2019-05-02 20:00:00 19.6 15 Sudeste 27 Sudeste 0 -- -- 38
2019-05-02 19:00:00 20.8 15 Sudeste 27 Este 0 -- -- 39
2019-05-02 18:00:00 21.2 16 Sudeste 26 Sudeste 0 -- -- 39
2019-05-02 17:00:00 21.1 14 Este 27 Sudeste 0 -- -- 40
2019-05-02 16:00:00 20.7 15 Sudeste 30 Este 0 -- -- 43
2019-05-02 15:00:00 19.9 14 Sudeste 29 Este 0 -- -- 47
2019-05-02 14:00:00 18.2 15 Sudeste 31 Sudeste 0 -- -- 51
2019-05-02 13:00:00 16.8 21 Sudeste 30 Sudeste 0 -- -- 54
2019-05-02 12:00:00 14.7 19 Sudeste 30 Sudeste 0 -- -- 58
2019-05-02 11:00:00 12.7 17 Sudeste 26 Sudeste 0 -- -- 61
2019-05-02 10:00:00 10.4 16 Este 28 Este 0 -- -- 67
2019-05-02 09:00:00 8.4 10 Este 16 Este 0 -- -- 71
2019-05-02 08:00:00 6.3 4 Este 16 Sur 0 -- -- 79
2019-05-02 07:00:00 5 2 Este 5 Este 0 -- -- 87
2019-05-02 06:00:00 4.7 0 Calma 12 Este 0 -- -- 88
2019-05-02 05:00:00 5.8 3 Este 14 Este 0 -- -- 84
2019-05-02 04:00:00 6.8 5 Sudeste 17 Este 0 -- -- 82
2019-05-02 03:00:00 7.2 4 Sudeste 21 Sudeste 0 -- -- 80
2019-05-02 02:00:00 8 15 Sudeste 28 Este 0 -- -- 80
2019-05-02 01:00:00 8.9 19 Este 42 Este 0 -- -- 80
2019-05-02 00:00:00 10.6 35 Este 53 Este 0 -- -- 73
2019-05-01 23:00:00 11.2 33 Este 50 Este 0 -- -- 73
2019-05-01 22:00:00 13.6 33 Este 46 Sudeste 0 -- -- 69
2019-05-01 21:00:00 18.7 25 Este 34 Este 0 -- -- 57
2019-05-01 20:00:00 23.1 8 Norte 29 Norte 0 -- -- 33
2019-05-01 19:00:00 25.4 12 Norte 25 Norte 0 -- -- 30
2019-05-01 18:00:00 25.5 13 Norte 27 Norte 0 -- -- 28
2019-05-01 17:00:00 25.5 12 Noroeste 28 Norte 0 -- -- 29
2019-05-01 16:00:00 24.4 6 Nordeste 25 Noroeste 0 -- -- 34
2019-05-01 15:00:00 24.3 8 Noroeste 17 Noroeste 0 -- -- 32
2019-05-01 14:00:00 24.2 4 Sudoeste 12 Noroeste 0 -- -- 34
2019-05-01 13:00:00 21.2 4 Norte 9 Sudeste 0 -- -- 39
2019-05-01 12:00:00 19 5 Norte 25 Oeste 0 -- -- 48
2019-05-01 11:00:00 16 3 Noroeste 8 Sudeste 0 -- -- 52
2019-05-01 10:00:00 12.9 3 Este 9 Sudeste 0 -- -- 60
2019-05-01 09:00:00 10 5 Este 13 Sudeste 0 -- -- 70
2019-05-01 08:00:00 7.4 12 Este 18 Este 0 -- -- 79
2019-05-01 07:00:00 6.8 14 Este 17 Este 0 -- -- 83
2019-05-01 06:00:00 7.2 10 Este 15 Este 0 -- -- 82
2019-05-01 05:00:00 8.3 10 Este 13 Este 0 -- -- 76
2019-05-01 04:00:00 9.3 3 Nordeste 6 Este 0 -- -- 71
2019-05-01 03:00:00 10.3 5 Este 11 Sudeste 0 -- -- 68
2019-05-01 02:00:00 12.2 9 Sudeste 17 Sudeste 0 -- -- 62
2019-05-01 01:00:00 12 6 Sudeste 19 Sudeste 0 -- -- 65
2019-05-01 00:00:00 12.8 13 Sudeste 20 Sudeste 0 -- -- 63
2019-04-30 23:00:00 12.3 11 Sudeste 15 Este 0 -- -- 72
2019-04-30 22:00:00 14.7 11 Este 13 Este 0 -- -- 66
2019-04-30 21:00:00 19.9 12 Sudeste 17 Sudeste 0 -- -- 44
2019-04-30 20:00:00 23.5 8 Este 14 Este 0 -- -- 30
2019-04-30 19:00:00 24.7 6 Este 19 Nordeste 0 -- -- 30
2019-04-30 18:00:00 25.3 10 Norte 22 Nordeste 0 -- -- 31
2019-04-30 17:00:00 24.9 10 Este 17 Este 0 -- -- 33
2019-04-30 16:00:00 23.6 6 Este 22 Sudeste 0 -- -- 35
2019-04-30 15:00:00 23.7 8 Sudeste 19 Sudeste 0 -- -- 36
2019-04-30 14:00:00 22.7 7 Sudeste 22 Este 0 -- -- 38
2019-04-30 13:00:00 21.2 13 Este 21 Este 0 -- -- 39
2019-04-30 12:00:00 20.4 12 Sur 20 Sur 0 -- -- 49
2019-04-30 11:00:00 17.5 4 Sudoeste 8 Sur 0 -- -- 58
2019-04-30 10:00:00 15 2 Sudeste 7 Sur 0 -- -- 64
2019-04-30 09:00:00 12.9 3 Sudeste 8 Este 0 -- -- 68
2019-04-30 08:00:00 9.4 3 Sudeste 10 Este 0 -- -- 81
2019-04-30 07:00:00 8.2 8 Este 12 Este 0 -- -- 84
2019-04-30 06:00:00 9 9 Este 12 Este 0 -- -- 81
2019-04-30 05:00:00 9.4 6 Este 12 Este 0 -- -- 82
2019-04-30 04:00:00 9.2 10 Este 13 Este 0 -- -- 84
2019-04-30 03:00:00 10.6 10 Nordeste 17 Nordeste 0 -- -- 79
2019-04-30 02:00:00 10.1 9 Sudeste 15 Este 0 -- -- 80
2019-04-30 01:00:00 11.4 12 Este 28 Este 0 -- -- 72
2019-04-30 00:00:00 12.6 10 Este 14 Este 0 -- -- 69
2019-04-29 23:00:00 15.1 7 Este 9 Norte 0 -- -- 57
2019-04-29 22:00:00 16.4 7 Norte 13 Norte 0 -- -- 52
2019-04-29 21:00:00 17.8 12 Norte 21 Norte 0 -- -- 52
2019-04-29 20:00:00 23.8 12 Norte 18 Norte 0 -- -- 34
2019-04-29 19:00:00 23.8 9 Noroeste 17 Norte 0 -- -- 37
2019-04-29 18:00:00 24.3 10 Norte 23 Norte 0 -- -- 34
2019-04-29 17:00:00 24.1 15 Noroeste 21 Norte 0 -- -- 37
2019-04-29 16:00:00 24.6 5 Sur 14 Este 0 -- -- 37
2019-04-29 15:00:00 23.1 6 Nordeste 14 Este 0 -- -- 40
2019-04-29 14:00:00 22.1 3 Nordeste 13 Este 0 -- -- 42
2019-04-29 13:00:00 19.6 4 Este 12 Sudeste 0 -- -- 48
2019-04-29 12:00:00 17 5 Este 12 Este 0 -- -- 59
2019-04-29 11:00:00 14.8 5 Sudeste 10 Sudeste 0 -- -- 59
2019-04-29 10:00:00 12.2 5 Este 12 Este 0 -- -- 66
2019-04-29 09:00:00 9.5 8 Este 13 Este 0 -- -- 79
2019-04-29 08:00:00 7.7 9 Este 12 Este 0 -- -- 80
2019-04-29 07:00:00 7.8 7 Nordeste 19 Este 0 -- -- 79
2019-04-29 06:00:00 9.5 17 Sudeste 22 Sudeste 0 -- -- 74
2019-04-29 05:00:00 8.9 11 Sudeste 22 Este 0 -- -- 82
2019-04-29 04:00:00 10.3 9 Sudeste 15 Este 0 -- -- 76
2019-04-29 03:00:00 10 13 Sudeste 18 Este 0 -- -- 77
2019-04-29 02:00:00 10.1 13 Sudeste 19 Sudeste 0 -- -- 77
2019-04-29 01:00:00 10.3 12 Este 16 Este 0 -- -- 75
2019-04-29 00:00:00 9.7 13 Este 16 Este 0 -- -- 78
2019-04-28 23:00:00 11.2 13 Este 15 Este 0 -- -- 76
2019-04-28 22:00:00 14.2 12 Este 14 Este 0 -- -- 70
2019-04-28 21:00:00 18.8 8 Este 13 Sudeste 0 -- -- 49
2019-04-28 20:00:00 21.6 9 Sudeste 18 Este 0 -- -- 39
2019-04-28 19:00:00 22.9 9 Sudeste 17 Sudeste 0 -- -- 39
2019-04-28 18:00:00 22.4 8 Sudeste 21 Sudeste 0 -- -- 41
2019-04-28 17:00:00 23.2 6 Sudeste 16 Este 0 -- -- 40
2019-04-28 16:00:00 22 6 Nordeste 21 Este 0 -- -- 41
2019-04-28 15:00:00 20.6 6 Este 20 Este 0 -- -- 46
2019-04-28 14:00:00 19.5 7 Este 18 Este 0 -- -- 54
2019-04-28 13:00:00 18.3 6 Sudeste 14 Este 0 -- -- 57
2019-04-28 12:00:00 15.8 5 Este 11 Sur 0 -- -- 67
2019-04-28 11:00:00 13.3 3 Sudeste 11 Este 0 -- -- 73
2019-04-28 10:00:00 11.2 8 Sudeste 14 Este 0 -- -- 80
2019-04-28 09:00:00 8.5 9 Este 13 Este 0 -- -- 87
2019-04-28 08:00:00 6.8 6 Este 15 Sudeste 0 -- -- 93
2019-04-28 07:00:00 6.1 12 Sudeste 20 Sudeste 0 -- -- 94
2019-04-28 06:00:00 6.8 15 Sudeste 21 Sudeste 0 -- -- 96
2019-04-28 05:00:00 6.2 9 Sudeste 17 Sudeste 0 -- -- 95
2019-04-28 04:00:00 6.1 13 Sudeste 18 Sudeste 0 -- -- 94
2019-04-28 03:00:00 6.1 12 Este 21 Sudeste 0 -- -- 91
2019-04-28 02:00:00 8.4 16 Este 22 Este 0 -- -- 81
2019-04-28 01:00:00 9 8 Este 10 Este 0 -- -- 78
2019-04-28 00:00:00 10 7 Este 10 Este 0 -- -- 76
2019-04-27 23:00:00 12.3 6 Sudeste 10 Sudeste 0 -- -- 67
2019-04-27 22:00:00 13.3 5 Este 8 Este 0 -- -- 62
2019-04-27 21:00:00 17.2 5 Sudeste 12 Este 0 -- -- 51
2019-04-27 20:00:00 20.3 5 Este 12 Norte 0 -- -- 45
2019-04-27 19:00:00 20.4 7 Nordeste 15 Nordeste 0 -- -- 44
2019-04-27 18:00:00 20.2 6 Este 23 Este 0 -- -- 44
2019-04-27 17:00:00 20.2 6 Nordeste 15 Nordeste 0 -- -- 44
2019-04-27 16:00:00 19 6 Sur 17 Sudeste 0 -- -- 47
2019-04-27 15:00:00 17.6 7 Sudeste 23 Nordeste 0 -- -- 53
2019-04-27 14:00:00 16.6 5 Noroeste 13 Noroeste 0 -- -- 53
2019-04-27 13:00:00 14.6 5 Norte 11 Noroeste 0 -- -- 56
2019-04-27 12:00:00 13.3 5 Sudoeste 10 Sudoeste 0 -- -- 61
2019-04-27 11:00:00 11.5 4 Sudoeste 8 Sur 0 -- -- 69
2019-04-27 10:00:00 9.6 4 Sur 6 Sur 0 -- -- 76
2019-04-27 09:00:00 6.3 2 Sudeste 10 Este 0 -- -- 85
2019-04-27 08:00:00 3 7 Este 12 Este 0 -- -- 92
2019-04-27 07:00:00 1.8 10 Este 12 Este 0 -- -- 94
2019-04-27 06:00:00 2.3 5 Sudeste 7 Sudeste 0 -- -- 92
2019-04-27 05:00:00 3.4 0 Calma 2 Este 0 -- -- 92
2019-04-27 04:00:00 4 0 Calma 3 Nordeste 0 -- -- 88
2019-04-27 03:00:00 4.9 0 Calma 6 Nordeste 0 -- -- 89
2019-04-27 02:00:00 5.4 4 Nordeste 11 Norte 0 -- -- 86
2019-04-27 01:00:00 5.5 10 Norte 13 Nordeste 0 -- -- 86
2019-04-27 00:00:00 6.2 8 Nordeste 10 Norte 0 -- -- 84
2019-04-26 23:00:00 6.9 4 Norte 11 Noroeste 0 -- -- 81
2019-04-26 22:00:00 9.3 6 Noroeste 14 Noroeste 0 -- -- 72
2019-04-26 21:00:00 11.7 12 Noroeste 27 Noroeste 0 -- -- 62
2019-04-26 20:00:00 14.1 18 Noroeste 31 Norte 0 -- -- 51
2019-04-26 19:00:00 14.2 21 Norte 34 Norte 0 -- -- 47
2019-04-26 18:00:00 14 15 Norte 30 Noroeste 0 -- -- 49
2019-04-26 17:00:00 15.2 21 Norte 36 Noroeste 0 -- -- 48
2019-04-26 16:00:00 14.1 16 Norte 33 Noroeste 0 -- -- 49
2019-04-26 15:00:00 13.6 16 Norte 36 Norte 0 -- -- 52
2019-04-26 14:00:00 12.9 23 Norte 37 Noroeste 0 -- -- 59
2019-04-26 13:00:00 12.3 22 Norte 33 Norte 0 -- -- 60
2019-04-26 12:00:00 10.1 21 Norte 37 Noroeste 0 -- -- 66
2019-04-26 11:00:00 10.2 22 Noroeste 34 Noroeste 0 -- -- 69
2019-04-26 10:00:00 8.6 24 Norte 40 Noroeste 0 -- -- 76
2019-04-26 09:00:00 7.3 23 Noroeste 31 Noroeste 0 -- -- 83
2019-04-26 08:00:00 5.7 17 Noroeste 32 Noroeste 0 -- -- 88
2019-04-26 07:00:00 5.4 23 Noroeste 32 Noroeste 0 -- -- 91
2019-04-26 06:00:00 5.8 26 Noroeste 35 Noroeste 0 -- -- 91
2019-04-26 05:00:00 6.1 23 Noroeste 39 Noroeste 0 -- -- 90
2019-04-26 04:00:00 6.3 30 Noroeste 44 Noroeste 0 -- -- 88
2019-04-26 03:00:00 6.3 25 Noroeste 33 Noroeste 0 -- -- 90
2019-04-26 02:00:00 6.7 20 Noroeste 37 Noroeste 0 -- -- 88
2019-04-26 01:00:00 6.7 19 Noroeste 36 Noroeste 0 -- -- 86
2019-04-26 00:00:00 6.1 27 Noroeste 44 Noroeste 0 -- -- 86